Aérodrome :
LOGIN :

S'inscrire | Disclaimer

   EN    FR    IT 

 










Légende :    VFR   VFR Marginal   IFR   IFR Intensif   IFR Très Intensif
Visi : 
Plafond : 
>= 8 km
>= 3000ft
5 à 8 km
1000 à 3000 ft
1500m à 5 km
500 à 1000 ft
800 à 1500m
200 à 500 ft
< 800m
< 200 ft
Symboles :   Orages  Brouillard  Fortes neiges  Fortes précipitations  Vent > 20 kt
SIGMETs :   Divers  Orages  Givrage  Turbulence  Onde Orograph.  Cendres Volcan.







- Altitude de l'aérodrome : 436 ft
- Code IATA : ANG
- Voir les cartes d'approche


LFBU - Angoulême Brie Champniers

DERNIER METAR :
  • 131600Z AUTO 01008KT 9999 BKN032 OVC088 05/04 Q1007 NOSIG

METARs EXPIRÉS :
  • 131530Z AUTO 02009KT 9999 SCT031 SCT039 OVC092 06/04 Q1007 NOSIG
  • 131500Z AUTO 02008KT 9999 BKN035 OVC090 07/05 Q1007 NOSIG
  • 131430Z AUTO 02005KT 9999 SCT033 OVC094 08/06 Q1006 NOSIG
  • 131400Z AUTO 05005KT 9999 SCT034 OVC100 08/05 Q1006 NOSIG
  • 131330Z AUTO 05006KT 9999 SCT032 OVC098 08/05 Q1006 NOSIG
  • 131300Z AUTO 04006KT CAVOK 08/05 Q1006 NOSIG

TAF TAF LFBU
Valide du 13 à 12h jusqu'au 14 à 12h UTC


131100Z 1312/1412 08005KT CAVOK
TEMPO 1312/1318 -RA BKN030
PROB30 1406/1412 OVC005
Pas de NOTAMs connus pour ce terrain.



MET'MAP, la Météo Aéronautique d'un coup d'oeil ! - Copyright ORBIFLY Décembre 2007 - Disclaimer

ORBIFLY MET'MAP TEAM :

Programmation & Développement : Alexandra Zaïnal
Conception & Développement : Baudouin d'Aumeries
Co-Programmation & Développement : Marc-Olivier Méhu
Soutien technique & logistique : Manuel Goepfert

Contact : metmap@orbifly.com




SOURCES & CREDITS :

   NOAA